createdAt,value
2023-03-11T00:00:31.670Z,35.30
2023-03-11T00:03:00.579Z,35.15
2023-03-11T00:05:30.400Z,41.40
2023-03-11T00:07:57.561Z,33.05
2023-03-11T00:10:29.975Z,35.60
2023-03-11T00:12:57.254Z,37.42
2023-03-11T00:15:23.670Z,35.58
2023-03-11T00:17:51.121Z,33.50
2023-03-11T00:20:23.728Z,32.92
2023-03-11T00:22:51.170Z,32.05
2023-03-11T00:25:18.349Z,31.52
2023-03-11T00:27:44.843Z,30.58
2023-03-11T00:30:13.280Z,30.02
2023-03-11T00:32:40.186Z,33.03
2023-03-11T00:35:08.903Z,35.33
2023-03-11T00:37:35.441Z,29.08
2023-03-11T00:40:01.840Z,33.17
2023-03-11T00:42:28.602Z,31.38
2023-03-11T00:44:55.022Z,34.13
2023-03-11T00:47:21.478Z,30.23
2023-03-11T00:49:47.867Z,30.05
2023-03-11T00:52:15.015Z,32.30
2023-03-11T00:54:41.432Z,35.05
2023-03-11T00:57:08.376Z,35.15
2023-03-11T00:59:35.674Z,34.00
2023-03-11T01:02:02.110Z,34.53
2023-03-11T01:04:28.642Z,31.23
2023-03-11T01:06:55.067Z,34.58
2023-03-11T01:09:21.481Z,28.02
2023-03-11T01:11:47.880Z,30.33
2023-03-11T01:14:14.314Z,27.80
2023-03-11T01:16:40.702Z,28.02
2023-03-11T01:19:08.549Z,26.60
2023-03-11T01:21:35.149Z,24.00
2023-03-11T01:24:01.564Z,22.98
2023-03-11T01:26:27.961Z,19.52
2023-03-11T01:28:55.663Z,20.67
2023-03-11T01:31:22.075Z,17.33
2023-03-11T01:33:49.095Z,15.88
2023-03-11T01:36:15.490Z,15.23
2023-03-11T01:38:41.874Z,12.75
2023-03-11T01:41:11.198Z,11.70
2023-03-11T01:43:43.404Z,8.77
2023-03-11T01:46:30.900Z,6.63
2023-03-11T01:48:59.638Z,6.60
2023-03-11T01:51:35.720Z,5.10
2023-03-11T01:54:33.520Z,3.80
2023-03-11T01:57:03.869Z,2.65
2023-03-11T01:59:33.078Z,3.60
2023-03-11T02:02:05.409Z,4.40
2023-03-11T02:04:34.349Z,4.68
2023-03-11T02:07:01.702Z,4.38
2023-03-11T02:09:28.302Z,4.57
2023-03-11T02:11:56.161Z,5.68
2023-03-11T02:14:25.658Z,4.10
2023-03-11T02:16:53.675Z,5.90
2023-03-11T02:19:27.110Z,5.60
2023-03-11T02:21:53.665Z,8.80
2023-03-11T02:24:39.074Z,6.07
2023-03-11T02:27:12.455Z,6.15
2023-03-11T02:29:39.340Z,6.45
2023-03-11T02:32:08.803Z,6.63
2023-03-11T02:34:39.453Z,7.28
2023-03-11T02:37:12.571Z,8.45
2023-03-11T02:39:45.201Z,7.65
2023-03-11T02:42:17.935Z,10.20
2023-03-11T02:44:47.055Z,11.10
2023-03-11T02:47:14.707Z,9.90
2023-03-11T02:49:41.976Z,10.77
2023-03-11T02:52:08.388Z,12.35
2023-03-11T02:58:40.979Z,11.45
2023-03-11T03:01:09.560Z,10.93
2023-03-11T03:03:36.011Z,11.27
2023-03-11T03:06:02.491Z,12.43
2023-03-11T03:08:28.947Z,10.13
2023-03-11T03:10:55.382Z,12.85
2023-03-11T03:13:23.473Z,13.20
2023-03-11T03:15:50.428Z,15.05
2023-03-11T03:18:16.846Z,12.45
2023-03-11T03:20:43.466Z,15.32
2023-03-11T03:23:10.491Z,14.18
2023-03-11T03:25:36.949Z,13.98
2023-03-11T03:28:06.777Z,14.38
2023-03-11T03:30:36.092Z,16.67
2023-03-11T03:33:02.495Z,16.48
2023-03-11T03:35:29.923Z,12.45
2023-03-11T03:38:09.241Z,16.17
2023-03-11T03:40:35.814Z,14.65
2023-03-11T03:43:05.412Z,15.68
2023-03-11T03:45:33.622Z,15.27
2023-03-11T03:48:00.261Z,15.80
2023-03-11T03:50:30.977Z,13.15
2023-03-11T03:52:57.434Z,12.63
2023-03-11T03:55:24.345Z,12.70
2023-03-11T03:57:51.519Z,13.02
2023-03-11T04:00:20.294Z,11.18
2023-03-11T04:02:53.501Z,13.85
2023-03-11T04:05:30.289Z,10.68
2023-03-11T04:07:56.799Z,9.48
2023-03-11T04:10:23.413Z,9.90
2023-03-11T04:12:50.046Z,9.77
2023-03-11T04:15:16.817Z,8.60
2023-03-11T04:17:44.085Z,7.10
2023-03-11T04:20:11.273Z,8.15
2023-03-11T04:22:37.740Z,6.30
2023-03-11T04:25:05.284Z,9.00
2023-03-11T04:27:32.659Z,9.43
2023-03-11T04:30:00.000Z,6.60
2023-03-11T04:32:26.576Z,8.52
2023-03-11T04:34:53.072Z,7.43
2023-03-11T04:37:19.530Z,5.85
2023-03-11T04:39:46.130Z,7.07
2023-03-11T04:42:13.983Z,7.03
2023-03-11T04:44:42.170Z,6.40
2023-03-11T04:47:08.685Z,6.30
2023-03-11T04:49:35.989Z,6.85
2023-03-11T04:52:02.755Z,9.23
2023-03-11T04:54:29.711Z,7.68
2023-03-11T04:56:56.167Z,7.85
2023-03-11T04:59:23.323Z,9.68
2023-03-11T05:01:51.305Z,8.10
2023-03-11T05:04:17.781Z,8.20
2023-03-11T05:06:44.200Z,9.13
2023-03-11T05:09:11.726Z,10.60
2023-03-11T05:11:39.862Z,6.63
2023-03-11T05:14:06.296Z,10.93
2023-03-11T05:16:32.791Z,6.55
2023-03-11T05:18:59.499Z,9.10
2023-03-11T05:21:25.960Z,9.10
2023-03-11T05:23:52.931Z,11.43
2023-03-11T05:26:19.360Z,8.45
2023-03-11T05:28:46.934Z,7.93
2023-03-11T05:31:13.406Z,12.00
2023-03-11T05:33:41.114Z,9.55
2023-03-11T05:36:10.889Z,10.73
2023-03-11T05:38:40.752Z,9.10
2023-03-11T05:41:10.243Z,10.52
2023-03-11T05:43:37.694Z,11.45
2023-03-11T05:46:04.281Z,11.57
2023-03-11T05:48:31.657Z,10.23
2023-03-11T05:50:59.318Z,11.95
2023-03-11T05:53:26.221Z,9.50
2023-03-11T05:55:57.234Z,9.32
2023-03-11T05:58:25.476Z,9.48
2023-03-11T06:00:51.983Z,9.48
2023-03-11T06:03:18.621Z,9.98
2023-03-11T06:05:49.573Z,10.35
2023-03-11T06:10:43.505Z,10.50
2023-03-11T06:13:10.687Z,13.77
2023-03-11T06:15:46.062Z,14.60
2023-03-11T06:18:12.664Z,13.82
2023-03-11T06:20:39.202Z,18.30
2023-03-11T06:23:05.678Z,14.88
2023-03-11T06:25:32.607Z,16.15
2023-03-11T06:27:59.613Z,15.43
2023-03-11T06:30:26.571Z,15.05
2023-03-11T06:33:09.844Z,18.35
2023-03-11T06:35:36.394Z,17.92
2023-03-11T06:38:02.850Z,17.52
2023-03-11T06:40:29.408Z,15.98
2023-03-11T06:42:55.831Z,18.17
2023-03-11T06:45:24.819Z,15.32
2023-03-11T06:47:52.256Z,14.45
2023-03-11T06:50:20.140Z,18.10
2023-03-11T06:52:46.609Z,21.95
2023-03-11T06:55:13.225Z,16.58
2023-03-11T06:57:39.650Z,17.92
2023-03-11T07:00:12.478Z,13.30
2023-03-11T07:02:41.780Z,13.77
2023-03-11T07:05:08.633Z,16.00
2023-03-11T07:07:35.207Z,16.67
2023-03-11T07:10:03.714Z,12.40
2023-03-11T07:12:30.364Z,21.25
2023-03-11T07:14:58.087Z,16.48
2023-03-11T07:17:25.378Z,15.82
2023-03-11T07:19:52.461Z,14.15
2023-03-11T07:22:19.040Z,13.95
2023-03-11T07:24:47.269Z,17.50
2023-03-11T07:27:13.685Z,15.48
2023-03-11T07:29:40.124Z,18.00
2023-03-11T07:32:08.086Z,13.95
2023-03-11T07:34:34.917Z,15.77
2023-03-11T07:37:01.326Z,16.33
2023-03-11T07:39:27.951Z,15.35
2023-03-11T07:41:54.370Z,22.30
2023-03-11T07:44:21.021Z,17.48
2023-03-11T07:46:47.425Z,16.30
2023-03-11T07:49:14.055Z,14.35
2023-03-11T07:51:44.783Z,13.65
2023-03-11T07:54:12.179Z,13.88
2023-03-11T07:56:38.744Z,15.75
2023-03-11T07:59:05.820Z,17.48
2023-03-11T08:01:36.927Z,14.45
2023-03-11T08:06:34.626Z,14.57
2023-03-11T08:09:03.803Z,18.02
2023-03-11T08:11:30.654Z,20.20
2023-03-11T08:13:57.900Z,18.13
2023-03-11T08:16:24.746Z,16.92
2023-03-11T08:18:57.501Z,17.98
2023-03-11T08:21:28.763Z,17.15
2023-03-11T08:23:58.884Z,19.73
2023-03-11T08:26:26.223Z,15.70
2023-03-11T08:28:52.655Z,14.63
2023-03-11T08:31:21.965Z,19.88
2023-03-11T08:33:50.185Z,18.10
2023-03-11T08:36:17.569Z,13.02
2023-03-11T08:38:44.168Z,14.52
2023-03-11T08:41:10.728Z,20.48
2023-03-11T08:43:37.262Z,18.45
2023-03-11T08:46:09.020Z,18.50
2023-03-11T08:48:37.248Z,15.00
2023-03-11T08:51:10.210Z,14.05
2023-03-11T08:53:37.685Z,15.27
2023-03-11T08:56:04.728Z,15.70
2023-03-11T08:58:31.130Z,16.92
2023-03-11T09:00:57.674Z,16.17
2023-03-11T09:03:24.076Z,20.02
2023-03-11T09:05:57.160Z,19.60
2023-03-11T09:08:23.629Z,17.00
2023-03-11T09:10:50.047Z,19.83
2023-03-11T09:13:16.437Z,18.83
2023-03-11T09:15:42.876Z,19.58
2023-03-11T09:18:13.169Z,19.63
2023-03-11T09:20:40.280Z,23.57
2023-03-11T09:23:07.654Z,20.38
2023-03-11T09:25:34.096Z,20.55
2023-03-11T09:28:00.488Z,22.98
2023-03-11T09:30:27.192Z,16.80
2023-03-11T09:32:53.817Z,16.77
2023-03-11T09:35:20.248Z,18.65
2023-03-11T09:37:46.639Z,17.33
2023-03-11T09:40:16.761Z,18.42
2023-03-11T09:43:19.573Z,19.77
2023-03-11T09:45:56.517Z,22.35
2023-03-11T09:48:33.943Z,17.63
2023-03-11T09:51:08.932Z,17.73
2023-03-11T09:53:40.400Z,20.05
2023-03-11T09:56:09.961Z,16.55
2023-03-11T09:58:51.592Z,17.40
2023-03-11T10:01:33.240Z,23.90
2023-03-11T10:04:14.612Z,23.95
2023-03-11T10:06:44.309Z,23.77
2023-03-11T10:09:39.284Z,24.95
2023-03-11T10:12:33.306Z,23.10
2023-03-11T10:15:05.786Z,28.92
2023-03-11T10:17:52.855Z,25.17
2023-03-11T10:20:30.718Z,26.27
2023-03-11T10:23:16.092Z,25.25
2023-03-11T10:25:53.111Z,23.90
2023-03-11T10:28:22.308Z,24.85
2023-03-11T10:30:57.871Z,23.92
2023-03-11T10:33:36.678Z,25.20
2023-03-11T10:36:09.388Z,25.77
2023-03-11T10:38:46.683Z,27.95
2023-03-11T10:41:28.728Z,29.35
2023-03-11T10:43:59.621Z,23.27
2023-03-11T10:46:28.144Z,24.80
2023-03-11T10:48:55.038Z,29.40
2023-03-11T10:51:24.878Z,24.65
2023-03-11T10:53:54.258Z,25.45
2023-03-11T10:56:30.127Z,28.52
2023-03-11T10:58:57.520Z,22.98
2023-03-11T11:01:25.119Z,22.73
2023-03-11T11:03:55.803Z,25.30
2023-03-11T11:06:35.173Z,23.67
2023-03-11T11:09:07.535Z,25.40
2023-03-11T11:11:36.132Z,27.25
2023-03-11T11:14:02.643Z,21.45
2023-03-11T11:16:30.522Z,23.77
2023-03-11T11:19:04.798Z,23.83
2023-03-11T11:21:34.569Z,23.58
2023-03-11T11:24:27.217Z,24.40
2023-03-11T11:27:15.572Z,21.88
2023-03-11T11:29:42.569Z,23.30
2023-03-11T11:32:14.775Z,21.92
2023-03-11T11:34:41.390Z,21.35
2023-03-11T11:37:13.205Z,23.35
2023-03-11T11:39:51.621Z,25.10
2023-03-11T11:42:23.264Z,22.13
2023-03-11T11:44:56.565Z,18.27
2023-03-11T11:47:34.767Z,22.88
2023-03-11T11:50:05.066Z,18.55
2023-03-11T11:52:36.389Z,20.47
2023-03-11T11:55:04.963Z,21.15
2023-03-11T11:57:31.854Z,19.73
2023-03-11T11:59:58.899Z,26.00
2023-03-11T12:02:46.260Z,21.13
2023-03-11T12:05:23.399Z,19.48
2023-03-11T12:07:54.602Z,21.02
2023-03-11T12:10:41.654Z,18.75
2023-03-11T12:13:45.516Z,21.20
2023-03-11T12:16:20.831Z,18.90
2023-03-11T12:18:56.016Z,19.80
2023-03-11T12:21:32.580Z,22.83
2023-03-11T12:24:17.033Z,20.10
2023-03-11T12:26:47.537Z,19.08
2023-03-11T12:29:40.521Z,13.98
2023-03-11T12:32:07.311Z,18.65
2023-03-11T12:34:35.898Z,19.13
2023-03-11T12:37:03.459Z,19.35
2023-03-11T12:39:33.634Z,19.67
2023-03-11T12:42:22.506Z,16.57
2023-03-11T12:44:49.911Z,18.27
2023-03-11T12:47:22.588Z,17.73
2023-03-11T12:49:51.974Z,16.42
2023-03-11T12:52:27.477Z,19.15
2023-03-11T12:54:56.525Z,19.00
2023-03-11T12:57:36.530Z,15.70
2023-03-11T13:00:23.068Z,16.80
2023-03-11T13:03:08.420Z,13.43
2023-03-11T13:05:45.189Z,13.40
2023-03-11T13:08:19.430Z,10.57
2023-03-11T13:10:47.965Z,13.13
2023-03-11T13:13:33.303Z,11.52
2023-03-11T13:16:14.819Z,15.50
2023-03-11T13:18:46.853Z,12.38
2023-03-11T13:21:38.024Z,12.60
2023-03-11T13:24:19.394Z,14.88
2023-03-11T13:26:52.870Z,14.73
2023-03-11T13:29:46.244Z,15.80
2023-03-11T13:32:36.239Z,14.20
2023-03-11T13:35:32.760Z,15.02
2023-03-11T13:38:19.054Z,14.48
2023-03-11T13:40:46.909Z,18.85
2023-03-11T13:43:22.506Z,18.10
2023-03-11T13:46:03.677Z,18.02
2023-03-11T13:51:06.290Z,19.25
2023-03-11T13:53:39.591Z,15.40
2023-03-11T13:56:06.595Z,15.23
2023-03-11T13:58:33.009Z,13.95
2023-03-11T14:01:01.370Z,19.70
2023-03-11T14:03:33.560Z,13.88
2023-03-11T14:06:06.425Z,15.35
2023-03-11T14:08:35.296Z,11.75
2023-03-11T14:11:12.207Z,12.65
2023-03-11T14:13:41.075Z,17.92
2023-03-11T14:16:15.945Z,40.72
2023-03-11T14:18:48.405Z,12.55
2023-03-11T14:21:18.155Z,11.65
2023-03-11T14:23:47.463Z,21.05
2023-03-11T14:26:17.689Z,13.32
2023-03-11T14:28:48.188Z,15.10
2023-03-11T14:31:39.993Z,12.93
2023-03-11T14:34:18.353Z,7.80
2023-03-11T14:36:50.993Z,7.18
2023-03-11T14:39:31.687Z,8.23
2023-03-11T14:42:18.880Z,6.43
2023-03-11T14:44:51.265Z,7.15
2023-03-11T14:47:29.677Z,10.05
2023-03-11T14:49:57.121Z,15.70
2023-03-11T14:52:37.318Z,19.60
2023-03-11T14:55:14.052Z,6.10
2023-03-11T14:57:51.272Z,14.90
2023-03-11T15:00:28.504Z,11.88
2023-03-11T15:02:58.641Z,14.95
2023-03-11T15:05:34.800Z,6.57
2023-03-11T15:08:03.690Z,6.88
2023-03-11T15:10:30.233Z,7.35
2023-03-11T15:13:08.756Z,7.82
2023-03-11T15:15:35.291Z,8.07
2023-03-11T15:18:02.202Z,4.82
2023-03-11T15:20:34.843Z,6.88
2023-03-11T15:23:03.708Z,9.32
2023-03-11T15:25:33.346Z,6.82
2023-03-11T15:28:13.146Z,5.47
2023-03-11T15:30:39.873Z,7.72
2023-03-11T15:33:21.216Z,5.20
2023-03-11T15:35:48.860Z,4.88
2023-03-11T15:38:23.586Z,8.57
2023-03-11T15:40:56.407Z,7.00
2023-03-11T15:43:27.771Z,4.43
2023-03-11T15:45:56.301Z,8.02
2023-03-11T15:48:23.437Z,4.38
2023-03-11T15:50:55.763Z,8.05
2023-03-11T15:53:24.440Z,7.25
2023-03-11T15:55:52.285Z,10.55
2023-03-11T15:58:20.292Z,12.00
2023-03-11T16:00:56.390Z,14.27
2023-03-11T16:03:23.455Z,5.43
2023-03-11T16:05:49.991Z,5.55
2023-03-11T16:08:16.827Z,5.68
2023-03-11T16:10:43.278Z,4.68
2023-03-11T16:13:13.263Z,4.72
2023-03-11T16:15:40.202Z,7.68
2023-03-11T16:18:08.672Z,4.90
2023-03-11T16:20:41.693Z,4.50
2023-03-11T16:23:16.055Z,8.77
2023-03-11T16:25:43.193Z,19.83
2023-03-11T16:28:13.548Z,8.82
2023-03-11T16:30:39.930Z,4.55
2023-03-11T16:33:06.384Z,3.95
2023-03-11T16:35:33.378Z,6.80
2023-03-11T16:38:00.029Z,6.15
2023-03-11T16:40:28.887Z,5.32
2023-03-11T16:42:59.758Z,9.38
2023-03-11T16:45:26.218Z,5.05
2023-03-11T16:47:52.618Z,5.32
2023-03-11T16:50:20.750Z,11.07
2023-03-11T16:52:47.354Z,6.40
2023-03-11T16:55:13.749Z,6.88
2023-03-11T16:57:40.134Z,7.03
2023-03-11T17:00:09.735Z,9.27
2023-03-11T17:02:37.739Z,6.00
2023-03-11T17:05:06.407Z,6.60
2023-03-11T17:07:33.469Z,6.97
2023-03-11T17:10:00.271Z,8.13
2023-03-11T17:12:27.450Z,9.40
2023-03-11T17:14:54.923Z,7.03
2023-03-11T17:17:22.126Z,7.38
2023-03-11T17:19:48.621Z,6.93
2023-03-11T17:22:15.390Z,8.23
2023-03-11T17:24:41.911Z,8.27
2023-03-11T17:27:08.290Z,22.02
2023-03-11T17:29:34.694Z,7.63
2023-03-11T17:32:02.421Z,23.17
2023-03-11T17:34:29.027Z,10.60
2023-03-11T17:36:56.493Z,7.32
2023-03-11T17:39:22.950Z,7.95
2023-03-11T17:41:49.471Z,13.68
2023-03-11T17:44:15.960Z,11.27
2023-03-11T17:46:42.422Z,8.95
2023-03-11T17:49:13.559Z,10.50
2023-03-11T17:54:06.371Z,11.18
2023-03-11T17:56:32.765Z,8.52
2023-03-11T17:58:59.433Z,8.27
2023-03-11T18:01:27.999Z,7.53
2023-03-11T18:03:54.875Z,14.07
2023-03-11T18:06:22.228Z,5.70
2023-03-11T18:08:48.916Z,9.25
2023-03-11T18:11:19.307Z,11.38
2023-03-11T18:13:46.429Z,8.45
2023-03-11T18:16:19.156Z,12.00
2023-03-11T18:18:46.071Z,5.88
2023-03-11T18:21:13.908Z,10.52
2023-03-11T18:23:41.003Z,6.57
2023-03-11T18:26:09.351Z,12.23
2023-03-11T18:28:36.000Z,15.15
2023-03-11T18:31:12.987Z,8.52
2023-03-11T18:33:40.687Z,7.15
2023-03-11T18:36:23.897Z,8.93
2023-03-11T18:38:52.379Z,14.32
2023-03-11T18:41:18.961Z,11.48
2023-03-11T18:43:45.898Z,12.45
2023-03-11T18:46:15.312Z,9.93
2023-03-11T18:48:41.938Z,7.68
2023-03-11T18:51:09.280Z,7.72
2023-03-11T18:53:36.248Z,6.15
2023-03-11T18:56:05.550Z,9.85
2023-03-11T18:58:32.637Z,6.97
2023-03-11T19:01:12.329Z,7.22
2023-03-11T19:03:39.285Z,6.53
2023-03-11T19:06:07.988Z,14.30
2023-03-11T19:08:34.397Z,5.88
2023-03-11T19:11:00.773Z,8.15
2023-03-11T19:13:40.692Z,10.10
2023-03-11T19:16:13.109Z,11.40
2023-03-11T19:18:40.341Z,10.75
2023-03-11T19:21:08.547Z,9.95
2023-03-11T19:23:35.076Z,8.10
2023-03-11T19:26:03.420Z,11.43
2023-03-11T19:28:30.385Z,7.72
2023-03-11T19:30:58.312Z,13.63
2023-03-11T19:33:26.154Z,11.27
2023-03-11T19:35:54.297Z,8.70
2023-03-11T19:38:21.979Z,6.63
2023-03-11T19:41:04.109Z,6.97
2023-03-11T19:43:30.884Z,6.40
2023-03-11T19:45:57.526Z,18.27
2023-03-11T19:48:24.501Z,6.47
2023-03-11T19:50:51.603Z,4.90
2023-03-11T19:53:18.696Z,7.25
2023-03-11T19:55:47.364Z,8.48
2023-03-11T19:58:14.150Z,8.82
2023-03-11T20:00:42.450Z,8.50
2023-03-11T20:03:10.401Z,16.40
2023-03-11T20:05:42.278Z,10.90
2023-03-11T20:08:10.591Z,10.73
2023-03-11T20:10:38.752Z,8.63
2023-03-11T20:13:05.650Z,12.80
2023-03-11T20:15:32.191Z,6.38
2023-03-11T20:18:00.688Z,7.13
2023-03-11T20:20:28.349Z,8.32
2023-03-11T20:22:55.434Z,5.05
2023-03-11T20:25:22.684Z,6.50
2023-03-11T20:27:49.094Z,7.38
2023-03-11T20:30:15.712Z,7.95
2023-03-11T20:32:42.187Z,11.32
2023-03-11T20:35:08.876Z,15.45
2023-03-11T20:37:35.346Z,11.45
2023-03-11T20:40:02.154Z,8.15
2023-03-11T20:42:28.600Z,8.85
2023-03-11T20:44:55.005Z,6.97
2023-03-11T20:47:21.540Z,4.70
2023-03-11T20:49:48.108Z,9.75
2023-03-11T20:52:14.522Z,5.53
2023-03-11T20:54:40.977Z,5.68
2023-03-11T20:57:07.883Z,11.45
2023-03-11T20:59:34.307Z,9.52
2023-03-11T21:02:01.018Z,9.38
2023-03-11T21:04:27.563Z,13.35
2023-03-11T21:06:55.342Z,8.45
2023-03-11T21:09:21.829Z,8.70
2023-03-11T21:11:48.249Z,7.28
2023-03-11T21:14:16.470Z,7.90
2023-03-11T21:16:44.958Z,7.35
2023-03-11T21:19:13.342Z,5.30
2023-03-11T21:21:39.861Z,15.63
2023-03-11T21:24:07.124Z,5.55
2023-03-11T21:26:34.677Z,15.07
2023-03-11T21:29:01.157Z,5.57
2023-03-11T21:31:29.463Z,5.60
2023-03-11T21:33:58.811Z,12.35
2023-03-11T21:36:25.509Z,9.45
2023-03-11T21:38:52.079Z,8.20
2023-03-11T21:41:25.133Z,10.95
2023-03-11T21:43:55.835Z,9.55
2023-03-11T21:46:25.096Z,4.75
2023-03-11T21:48:51.634Z,7.43
2023-03-11T21:51:19.629Z,13.50
2023-03-11T21:53:46.914Z,11.32
2023-03-11T21:56:14.008Z,9.18
2023-03-11T21:58:40.961Z,10.57
2023-03-11T22:01:08.423Z,6.45
2023-03-11T22:03:36.055Z,12.52
2023-03-11T22:06:06.255Z,10.38
2023-03-11T22:08:32.977Z,10.13
2023-03-11T22:10:59.830Z,6.75
2023-03-11T22:13:26.445Z,9.80
2023-03-11T22:15:52.966Z,4.38
2023-03-11T22:18:19.536Z,13.20
2023-03-11T22:20:46.131Z,4.93
2023-03-11T22:23:12.552Z,9.93
2023-03-11T22:25:39.008Z,12.55
2023-03-11T22:28:05.516Z,12.40
2023-03-11T22:30:31.993Z,10.35
2023-03-11T22:32:58.425Z,7.85
2023-03-11T22:35:24.811Z,5.85
2023-03-11T22:37:51.226Z,8.07
2023-03-11T22:40:17.676Z,7.63
2023-03-11T22:42:44.073Z,9.77
2023-03-11T22:45:10.985Z,8.38
2023-03-11T22:47:37.398Z,6.05
2023-03-11T22:50:03.992Z,9.77
2023-03-11T22:52:30.414Z,8.15
2023-03-11T22:54:56.814Z,12.05
2023-03-11T22:57:23.189Z,7.82
2023-03-11T22:59:49.613Z,5.97
2023-03-11T23:02:15.992Z,3.53
2023-03-11T23:04:45.311Z,8.18
2023-03-11T23:07:12.087Z,10.18
2023-03-11T23:09:38.832Z,7.50
2023-03-11T23:12:05.501Z,9.18
2023-03-11T23:14:44.116Z,6.07
2023-03-11T23:17:10.840Z,5.53
2023-03-11T23:19:37.250Z,7.80
2023-03-11T23:22:03.945Z,7.80
2023-03-11T23:24:30.332Z,7.22
2023-03-11T23:26:56.767Z,9.63
2023-03-11T23:29:23.168Z,10.50
2023-03-11T23:31:49.568Z,7.35
2023-03-11T23:34:15.949Z,13.43
2023-03-11T23:36:42.346Z,6.90
2023-03-11T23:39:08.739Z,6.97
2023-03-11T23:41:36.540Z,14.43
2023-03-11T23:44:02.947Z,5.10
2023-03-11T23:46:29.407Z,6.38
2023-03-11T23:48:55.820Z,8.85
2023-03-11T23:51:22.474Z,14.10
2023-03-11T23:53:48.894Z,8.85
2023-03-11T23:56:17.597Z,10.35
2023-03-11T23:58:44.745Z,5.85
